Unicom:                    122.8

AWOS:                  118.275

Elevation           1458’ MSL

TPA:                   2500’ MSL

06/24:         5003’ L   75’ W

PAPI:       06/Left     24/Left

(Operate lights on unicom freq.)

Traffic Pattern: Left

Beacon: Sunset to Sunrise

Windsock: yes, lighted

Segmented Circle: No

 

Cleveland Center: 126.72/291.65

FSS: Altoona

[Source: ADDS]
METAR
KFKL 011727Z AUTO 30008G14KT 5SM +TSRA BR FEW027 BKN035 OVC047 16/14 A2990 RMK AO2 LTG DSNT N AND W TSB02E26B27RAB14 PNO $ =
KFKL 011738Z 0118/0218 30009KT 6SM -SHRA VCTS BKN035CB FM012100 32009KT P6SM SCT070 FM012300 31006KT P6SM SCT100 FM020800 34003KT P6SM BKN015 FM021400 34005KT P6SM FEW150
TAF
KFKL 011738Z 0118/0218 30009KT 6SM -SHRA VCTS BKN035CB FM012100 32009KT P6SM SCT070 FM012300 31006KT P6SM SCT100 FM020800 34003KT P6SM BKN015 FM021400 34005KT P6SM FEW150 =
[Source: ADDS]
METAR
KDUJ 011653Z AUTO 23008KT 10SM SCT035 SCT055 BKN075 23/14 A2987 RMK AO2 SLP103 T02280144 =
KDUJ 011738Z 0118/0218 27010KT P6SM BKN060 FM012200 31009G18KT P6SM VCTS SCT040CB BKN070 FM020000 31006KT P6SM SCT090 FM020800 33004KT P6SM BKN010 FM021100 34005KT P6SM SCT040
TAF
KDUJ 011738Z 0118/0218 27010KT P6SM BKN060 FM012200 31009G18KT P6SM VCTS SCT040CB BKN070 FM020000 31006KT P6SM SCT090 FM020800 33004KT P6SM BKN010 FM021100 34005KT P6SM SCT040 =

Welcome to Clarion County Airport.

We look forward to serving all of your aviation needs.


Clarion County Airport is a General Aviation, Business Class airport serving the Clarion County Area in Central Western Pennsylvania.  Our 5,003' asphalt runway and gps approaches are capable of serving most of the general aviation fleet in most weather conditions.


If you are planning a fuel stop while flying in Western Pennsylvania, consider paying us a visit. Our prices are some of the lowest in the state Check prices here ----> www.airnav.com/fuel and enter identifier KAXQ or see current prices below. We can have you fueled and taxiing out to the runway in about 10 minutes. Our current hours of operation are Monday- Sunday 8:00AM-4:00PM. Holiday closures are Christmas Day and Thanksgiving. If you require use of the facilities during the holidays or after hours please call ahead and someone will be there to assist you.


- Airport Manager -  


                             CURRENT FUEL PRICES       JET-A w/additive    $4.25               100LL     $5.40 CC  


                              Self Service fueling available 24/7, credit card reader enabled. Center point fueling available upon request.

                                                           For after hours fueling assistance please contact 814-316-5746